Van Kinsbergen — PAKB — position and weather

sailwx.info

Track history (hours):
 
Tides and Currents Weather Stations Pressure Air Temp Water Temp Dewpoint Dewpoint Depression Visibility Wind Speed Wind Dir Waves Ship Positions

Van Kinsbergen

Last reported at 2015-Mar-30 00:33 UTC. Time now 2015-Mar-30 01:03 UTC.
Position N 54°22' E 010°09'.

Length 40 m; draft 3.1 m.

MMSI: 244736000.

Date/timePositionNaut miles runAvg speedWind from/ knotsBaromVisibWave heightAir tempDewpointWater temp
2015-Mar-30 00:33N 54°22' E 010°09'0 0.0
2015-Mar-29 23:33N 54°22' E 010°09'0 0.0
2015-Mar-29 22:33N 54°22' E 010°09'0 0.0
2015-Mar-29 21:33N 54°22' E 010°09'0 0.0
2015-Mar-29 20:33N 54°22' E 010°09'0 0.0
2015-Mar-29 19:33N 54°22' E 010°09'0 0.0
2015-Mar-29 18:33N 54°22' E 010°09'0 0.0
2015-Mar-29 17:33N 54°22' E 010°09'0 0.0
2015-Mar-29 16:33N 54°22' E 010°09'0 0.0
2015-Mar-29 15:30N 54°22' E 010°09'0 0.0
2015-Mar-29 14:33N 54°22' E 010°09'0 0.0
2015-Mar-29 13:33N 54°22' E 010°09'0 0.0
2015-Mar-29 12:33N 54°22' E 010°09'0 0.0
2015-Mar-29 11:33N 54°22' E 010°09'0 0.0
2015-Mar-29 10:30N 54°22' E 010°09'0 0.0
2015-Mar-29 09:33N 54°22' E 010°09'0 0.0
2015-Mar-29 08:33N 54°22' E 010°09'0 0.0
2015-Mar-29 07:33N 54°22' E 010°09'0 0.0
2015-Mar-29 06:33N 54°22' E 010°09'0 0.0
2015-Mar-29 05:33N 54°22' E 010°09'0 0.0
2015-Mar-29 04:33N 54°22' E 010°09'0 0.0
2015-Mar-29 03:30N 54°22' E 010°09'0 0.0
2015-Mar-29 02:33N 54°22' E 010°09'0 0.0
2015-Mar-29 01:33N 54°22' E 010°09'0 0.0
2015-Mar-29 00:33N 54°22' E 010°09'0 0.0
2015-Mar-28 23:30N 54°22' E 010°09'0 0.0
2015-Mar-28 22:33N 54°22' E 010°09'0 0.0
2015-Mar-28 21:33N 54°22' E 010°09'0 0.0
2015-Mar-28 20:33N 54°22' E 010°09'3 2.6
2015-Mar-28 19:33N 54°24' E 010°12'10 9.5
2015-Mar-28 18:33N 54°33' E 010°14'10 9.8
2015-Mar-28 17:33N 54°42' E 010°06'10 7.0
2015-Mar-28 16:09N 54°50' E 009°57'1 0.1
2015-Mar-28 05:13N 54°50' E 009°56'6 6.3
2015-Mar-28 04:17N 54°49' E 010°06'7 8.7
2015-Mar-28 03:29N 54°43' E 010°12'90 5.9
2015-Mar-27 12:23N 55°16' E 012°38'810.0
2015-Mar-27 11:34N 55°24' E 012°39'10 9.8
2015-Mar-27 10:34N 55°33' E 012°42'7 7.5
2015-Mar-27 09:33N 55°41' E 012°39'2 2.0
2015-Mar-27 08:33N 55°41' E 012°36'0 0.0
2015-Mar-27 07:33N 55°41' E 012°36'0 0.0
2015-Mar-27 06:33N 55°41' E 012°36'0 0.0
2015-Mar-27 05:33N 55°41' E 012°36'0 0.0
2015-Mar-27 04:33N 55°41' E 012°36'0 0.0
2015-Mar-27 03:33N 55°41' E 012°36'0 0.0
2015-Mar-27 02:33N 55°41' E 012°36'0 0.0
2015-Mar-27 01:33N 55°41' E 012°36'0 0.0
2015-Mar-27 00:33N 55°41' E 012°36'0 0.0
2015-Mar-26 23:33N 55°41' E 012°36'0 0.0
2015-Mar-26 22:33N 55°41' E 012°36'0 0.0
2015-Mar-26 21:33N 55°41' E 012°36'0 0.0
2015-Mar-26 20:33N 55°41' E 012°36'0 0.0
2015-Mar-26 19:33N 55°41' E 012°36'0 0.0
2015-Mar-26 18:30N 55°41' E 012°36'0 0.0
2015-Mar-26 17:33N 55°41' E 012°36'0 0.0
2015-Mar-26 16:33N 55°41' E 012°36'0 0.0
2015-Mar-26 15:33N 55°41' E 012°36'0 0.0
2015-Mar-26 14:33N 55°41' E 012°36'0 0.0
2015-Mar-26 13:33N 55°41' E 012°36'0 0.0
2015-Mar-26 12:33N 55°41' E 012°36'0 0.0
2015-Mar-26 11:33N 55°41' E 012°36'0 0.0
2015-Mar-26 10:33N 55°41' E 012°36'0 0.0
2015-Mar-26 09:33N 55°41' E 012°36'3 2.7
2015-Mar-26 08:33N 55°43' E 012°39'8 8.3
2015-Mar-26 07:33N 55°51' E 012°40'8 8.5
2015-Mar-26 06:33N 55°60' E 012°37'7 6.9
2015-Mar-26 05:33N 56°06' E 012°32'7 7.2
2015-Mar-26 04:33N 56°10' E 012°22'7 6.5
2015-Mar-26 03:33N 56°12' E 012°11'120 3.4
2015-Mar-24 16:30N 54°30' E 010°20'11 5.6
2015-Mar-24 14:27N 54°22' E 010°05'7 7.9
2015-Mar-24 13:33N 54°21' E 009°53'7 7.3
2015-Mar-24 12:32N 54°18' E 009°42'19 8.0
2015-Mar-24 10:10N 54°04' E 009°19'6 8.9
2015-Mar-24 09:33N 53°59' E 009°17'7 7.2
2015-Mar-24 08:34N 53°54' E 009°09'2 2.5
2015-Mar-24 07:33N 53°53' E 009°05'6 6.2
2015-Mar-24 06:33N 53°50' E 008°55'6 6.1
2015-Mar-24 05:33N 53°51' E 008°45'15 6.8
2015-Mar-24 03:25N 53°59' E 008°24'17 8.9
2015-Mar-24 01:33N 53°57' E 007°55'1010.4
2015-Mar-24 00:33N 53°55' E 007°38'6613.2
2015-Mar-23 19:33N 53°38' E 005°51'1413.7
2015-Mar-23 18:34N 53°34' E 005°28'1313.2
2015-Mar-23 17:33N 53°30' E 005°07'41 9.5
2015-Mar-23 13:15N 52°53' E 004°38'811.1
2015-Mar-23 12:34N 52°58' E 004°47'1 0.3
2015-Mar-23 10:26N 52°58' E 004°47'0 0.0
2015-Mar-23 03:32N 52°58' E 004°47'0 0.0
2015-Mar-23 01:29N 52°58' E 004°47'0 0.0
2015-Mar-23 00:32N 52°58' E 004°47'0 0.0
2015-Mar-22 22:23N 52°58' E 004°47'0 0.0
2015-Mar-22 21:23N 52°58' E 004°47'0 0.0
2015-Mar-22 20:23N 52°58' E 004°47'0 0.0
2015-Mar-22 19:26N 52°58' E 004°47'0 0.0
2015-Mar-22 18:26N 52°58' E 004°47'0 0.0
2015-Mar-22 17:23N 52°58' E 004°47'0 0.0
2015-Mar-22 16:29N 52°58' E 004°47'0 0.0
2015-Mar-22 15:29N 52°58' E 004°47'0 0.0
2015-Mar-22 14:29N 52°58' E 004°47'0 0.0
2015-Mar-22 13:14N 52°58' E 004°47'0 0.0
2015-Mar-22 12:32N 52°58' E 004°47'0 0.0
2015-Mar-22 11:32N 52°58' E 004°47'0 0.0
2015-Mar-22 10:32N 52°58' E 004°47'0 0.0
2015-Mar-22 09:32N 52°58' E 004°47'0 0.0
2015-Mar-22 08:20N 52°58' E 004°47'0 0.0
2015-Mar-22 07:23N 52°58' E 004°47'0 0.0
2015-Mar-22 06:20N 52°58' E 004°47'0 0.0
2015-Mar-22 05:20N 52°58' E 004°47'0 0.0
2015-Mar-22 04:26N 52°58' E 004°47'0 0.0
2015-Mar-22 03:29N 52°58' E 004°47'0 0.0
2015-Mar-22 02:26N 52°58' E 004°47'0 0.0
2015-Mar-22 01:29N 52°58' E 004°47'0 0.0
2015-Mar-22 00:29N 52°58' E 004°47'0 0.0
2015-Mar-21 23:32N 52°58' E 004°47'0 0.0
2015-Mar-21 22:32N 52°58' E 004°47'0 0.0
2015-Mar-21 21:32N 52°58' E 004°47'0 0.0
2015-Mar-21 20:17N 52°58' E 004°47'0 0.0
2015-Mar-21 19:20N 52°58' E 004°47'0 0.0
2015-Mar-21 18:32N 52°58' E 004°47'0 0.0
2015-Mar-21 17:05N 52°58' E 004°47'0 0.0
2015-Mar-21 16:23N 52°58' E 004°47'0 0.0
2015-Mar-21 15:23N 52°58' E 004°47'0 0.0
2015-Mar-21 14:26N 52°58' E 004°47'0 0.0
2015-Mar-21 13:29N 52°58' E 004°47'0 0.0
2015-Mar-21 12:29N 52°58' E 004°47'0 0.0
2015-Mar-21 11:26N 52°58' E 004°47'0 0.0
2015-Mar-21 10:32N 52°58' E 004°47'0 0.0
2015-Mar-21 09:26N 52°58' E 004°47'0 0.0
2015-Mar-21 08:17N 52°58' E 004°47'0 0.0
2015-Mar-21 07:32N 52°58' E 004°47'0 0.0
2015-Mar-21 06:29N 52°58' E 004°47'0 0.0
2015-Mar-21 05:32N 52°58' E 004°47'0 0.0
2015-Mar-21 04:23N 52°58' E 004°47'0 0.0
2015-Mar-21 03:08N 52°58' E 004°47'0 0.0
2015-Mar-21 02:26N 52°58' E 004°47'0 0.0
2015-Mar-21 01:26N 52°58' E 004°47'0 0.0
2015-Mar-20 20:26N 52°58' E 004°47'0 0.0
2015-Mar-20 19:32N 52°58' E 004°47'0 0.0
2015-Mar-20 18:29N 52°58' E 004°47'0 0.0
2015-Mar-20 17:14N 52°58' E 004°47'0 0.0
2015-Mar-20 16:17N 52°58' E 004°47'0 0.0
2015-Mar-20 15:20N 52°58' E 004°47'0 0.0
2015-Mar-20 14:32N 52°58' E 004°47'1 0.8
2015-Mar-20 13:26N 52°58' E 004°46'1 1.3
2015-Mar-20 12:32N 52°58' E 004°44'23 5.8
2015-Mar-20 08:33N 53°19' E 005°02'8 7.8
2015-Mar-20 07:33N 53°19' E 005°15'3 2.4
2015-Mar-20 06:27N 53°22' E 005°13'0 0.0
2015-Mar-20 05:30N 53°22' E 005°13'0 0.0
2015-Mar-20 04:33N 53°22' E 005°13'0 0.0
2015-Mar-20 03:33N 53°22' E 005°13'0 0.0
2015-Mar-20 02:27N 53°22' E 005°13'0 0.0
2015-Mar-20 01:30N 53°22' E 005°13'  
Track history (hours):
 
Tides and Currents Weather Stations Pressure Air Temp Water Temp Dewpoint Dewpoint Depression Visibility Wind Speed Wind Dir Waves Ship Positions

Van Kinsbergen

Last reported at 2015-Mar-30 00:33 UTC. Time now 2015-Mar-30 01:03 UTC.
Position N 54°22' E 010°09'.

Length 40 m; draft 3.1 m.

MMSI: 244736000.

Date/timePositionNaut miles runAvg speedWind from/ knotsBaromVisibWave heightAir tempDewpointWater temp
2015-Mar-30 00:33N 54°22' E 010°09'0 0.0
2015-Mar-29 23:33N 54°22' E 010°09'0 0.0
2015-Mar-29 22:33N 54°22' E 010°09'0 0.0
2015-Mar-29 21:33N 54°22' E 010°09'0 0.0
2015-Mar-29 20:33N 54°22' E 010°09'0 0.0
2015-Mar-29 19:33N 54°22' E 010°09'0 0.0
2015-Mar-29 18:33N 54°22' E 010°09'0 0.0
2015-Mar-29 17:33N 54°22' E 010°09'0 0.0
2015-Mar-29 16:33N 54°22' E 010°09'0 0.0
2015-Mar-29 15:30N 54°22' E 010°09'0 0.0
2015-Mar-29 14:33N 54°22' E 010°09'0 0.0
2015-Mar-29 13:33N 54°22' E 010°09'0 0.0
2015-Mar-29 12:33N 54°22' E 010°09'0 0.0
2015-Mar-29 11:33N 54°22' E 010°09'0 0.0
2015-Mar-29 10:30N 54°22' E 010°09'0 0.0
2015-Mar-29 09:33N 54°22' E 010°09'0 0.0
2015-Mar-29 08:33N 54°22' E 010°09'0 0.0
2015-Mar-29 07:33N 54°22' E 010°09'0 0.0
2015-Mar-29 06:33N 54°22' E 010°09'0 0.0
2015-Mar-29 05:33N 54°22' E 010°09'0 0.0
2015-Mar-29 04:33N 54°22' E 010°09'0 0.0
2015-Mar-29 03:30N 54°22' E 010°09'0 0.0
2015-Mar-29 02:33N 54°22' E 010°09'0 0.0
2015-Mar-29 01:33N 54°22' E 010°09'0 0.0
2015-Mar-29 00:33N 54°22' E 010°09'0 0.0
2015-Mar-28 23:30N 54°22' E 010°09'0 0.0
2015-Mar-28 22:33N 54°22' E 010°09'0 0.0
2015-Mar-28 21:33N 54°22' E 010°09'0 0.0
2015-Mar-28 20:33N 54°22' E 010°09'3 2.6
2015-Mar-28 19:33N 54°24' E 010°12'10 9.5
2015-Mar-28 18:33N 54°33' E 010°14'10 9.8
2015-Mar-28 17:33N 54°42' E 010°06'10 7.0
2015-Mar-28 16:09N 54°50' E 009°57'1 0.1
2015-Mar-28 05:13N 54°50' E 009°56'6 6.3
2015-Mar-28 04:17N 54°49' E 010°06'7 8.7
2015-Mar-28 03:29N 54°43' E 010°12'90 5.9
2015-Mar-27 12:23N 55°16' E 012°38'810.0
2015-Mar-27 11:34N 55°24' E 012°39'10 9.8
2015-Mar-27 10:34N 55°33' E 012°42'7 7.5
2015-Mar-27 09:33N 55°41' E 012°39'2 2.0
2015-Mar-27 08:33N 55°41' E 012°36'0 0.0
2015-Mar-27 07:33N 55°41' E 012°36'0 0.0
2015-Mar-27 06:33N 55°41' E 012°36'0 0.0
2015-Mar-27 05:33N 55°41' E 012°36'0 0.0
2015-Mar-27 04:33N 55°41' E 012°36'0 0.0
2015-Mar-27 03:33N 55°41' E 012°36'0 0.0
2015-Mar-27 02:33N 55°41' E 012°36'0 0.0
2015-Mar-27 01:33N 55°41' E 012°36'0 0.0
2015-Mar-27 00:33N 55°41' E 012°36'0 0.0
2015-Mar-26 23:33N 55°41' E 012°36'0 0.0
2015-Mar-26 22:33N 55°41' E 012°36'0 0.0
2015-Mar-26 21:33N 55°41' E 012°36'0 0.0
2015-Mar-26 20:33N 55°41' E 012°36'0 0.0
2015-Mar-26 19:33N 55°41' E 012°36'0 0.0
2015-Mar-26 18:30N 55°41' E 012°36'0 0.0
2015-Mar-26 17:33N 55°41' E 012°36'0 0.0
2015-Mar-26 16:33N 55°41' E 012°36'0 0.0
2015-Mar-26 15:33N 55°41' E 012°36'0 0.0
2015-Mar-26 14:33N 55°41' E 012°36'0 0.0
2015-Mar-26 13:33N 55°41' E 012°36'0 0.0
2015-Mar-26 12:33N 55°41' E 012°36'0 0.0
2015-Mar-26 11:33N 55°41' E 012°36'0 0.0
2015-Mar-26 10:33N 55°41' E 012°36'0 0.0
2015-Mar-26 09:33N 55°41' E 012°36'3 2.7
2015-Mar-26 08:33N 55°43' E 012°39'8 8.3
2015-Mar-26 07:33N 55°51' E 012°40'8 8.5
2015-Mar-26 06:33N 55°60' E 012°37'7 6.9
2015-Mar-26 05:33N 56°06' E 012°32'7 7.2
2015-Mar-26 04:33N 56°10' E 012°22'7 6.5
2015-Mar-26 03:33N 56°12' E 012°11'120 3.4
2015-Mar-24 16:30N 54°30' E 010°20'11 5.6
2015-Mar-24 14:27N 54°22' E 010°05'7 7.9
2015-Mar-24 13:33N 54°21' E 009°53'7 7.3
2015-Mar-24 12:32N 54°18' E 009°42'19 8.0
2015-Mar-24 10:10N 54°04' E 009°19'6 8.9
2015-Mar-24 09:33N 53°59' E 009°17'7 7.2
2015-Mar-24 08:34N 53°54' E 009°09'2 2.5
2015-Mar-24 07:33N 53°53' E 009°05'6 6.2
2015-Mar-24 06:33N 53°50' E 008°55'6 6.1
2015-Mar-24 05:33N 53°51' E 008°45'15 6.8
2015-Mar-24 03:25N 53°59' E 008°24'17 8.9
2015-Mar-24 01:33N 53°57' E 007°55'1010.4
2015-Mar-24 00:33N 53°55' E 007°38'6613.2
2015-Mar-23 19:33N 53°38' E 005°51'1413.7
2015-Mar-23 18:34N 53°34' E 005°28'1313.2
2015-Mar-23 17:33N 53°30' E 005°07'41 9.5
2015-Mar-23 13:15N 52°53' E 004°38'811.1
2015-Mar-23 12:34N 52°58' E 004°47'1 0.3
2015-Mar-23 10:26N 52°58' E 004°47'0 0.0
2015-Mar-23 03:32N 52°58' E 004°47'0 0.0
2015-Mar-23 01:29N 52°58' E 004°47'0 0.0
2015-Mar-23 00:32N 52°58' E 004°47'0 0.0
2015-Mar-22 22:23N 52°58' E 004°47'0 0.0
2015-Mar-22 21:23N 52°58' E 004°47'0 0.0
2015-Mar-22 20:23N 52°58' E 004°47'0 0.0
2015-Mar-22 19:26N 52°58' E 004°47'0 0.0
2015-Mar-22 18:26N 52°58' E 004°47'0 0.0
2015-Mar-22 17:23N 52°58' E 004°47'0 0.0
2015-Mar-22 16:29N 52°58' E 004°47'0 0.0
2015-Mar-22 15:29N 52°58' E 004°47'0 0.0
2015-Mar-22 14:29N 52°58' E 004°47'0 0.0
2015-Mar-22 13:14N 52°58' E 004°47'0 0.0
2015-Mar-22 12:32N 52°58' E 004°47'0 0.0
2015-Mar-22 11:32N 52°58' E 004°47'0 0.0
2015-Mar-22 10:32N 52°58' E 004°47'0 0.0
2015-Mar-22 09:32N 52°58' E 004°47'0 0.0
2015-Mar-22 08:20N 52°58' E 004°47'0 0.0
2015-Mar-22 07:23N 52°58' E 004°47'0 0.0
2015-Mar-22 06:20N 52°58' E 004°47'0 0.0
2015-Mar-22 05:20N 52°58' E 004°47'0 0.0
2015-Mar-22 04:26N 52°58' E 004°47'0 0.0
2015-Mar-22 03:29N 52°58' E 004°47'0 0.0
2015-Mar-22 02:26N 52°58' E 004°47'0 0.0
2015-Mar-22 01:29N 52°58' E 004°47'0 0.0
2015-Mar-22 00:29N 52°58' E 004°47'0 0.0
2015-Mar-21 23:32N 52°58' E 004°47'0 0.0
2015-Mar-21 22:32N 52°58' E 004°47'0 0.0
2015-Mar-21 21:32N 52°58' E 004°47'0 0.0
2015-Mar-21 20:17N 52°58' E 004°47'0 0.0
2015-Mar-21 19:20N 52°58' E 004°47'0 0.0
2015-Mar-21 18:32N 52°58' E 004°47'0 0.0
2015-Mar-21 17:05N 52°58' E 004°47'0 0.0
2015-Mar-21 16:23N 52°58' E 004°47'0 0.0
2015-Mar-21 15:23N 52°58' E 004°47'0 0.0
2015-Mar-21 14:26N 52°58' E 004°47'0 0.0
2015-Mar-21 13:29N 52°58' E 004°47'0 0.0
2015-Mar-21 12:29N 52°58' E 004°47'0 0.0
2015-Mar-21 11:26N 52°58' E 004°47'0 0.0
2015-Mar-21 10:32N 52°58' E 004°47'0 0.0
2015-Mar-21 09:26N 52°58' E 004°47'0 0.0
2015-Mar-21 08:17N 52°58' E 004°47'0 0.0
2015-Mar-21 07:32N 52°58' E 004°47'0 0.0
2015-Mar-21 06:29N 52°58' E 004°47'0 0.0
2015-Mar-21 05:32N 52°58' E 004°47'0 0.0
2015-Mar-21 04:23N 52°58' E 004°47'0 0.0
2015-Mar-21 03:08N 52°58' E 004°47'0 0.0
2015-Mar-21 02:26N 52°58' E 004°47'0 0.0
2015-Mar-21 01:26N 52°58' E 004°47'0 0.0
2015-Mar-20 20:26N 52°58' E 004°47'0 0.0
2015-Mar-20 19:32N 52°58' E 004°47'0 0.0
2015-Mar-20 18:29N 52°58' E 004°47'0 0.0
2015-Mar-20 17:14N 52°58' E 004°47'0 0.0
2015-Mar-20 16:17N 52°58' E 004°47'0 0.0
2015-Mar-20 15:20N 52°58' E 004°47'0 0.0
2015-Mar-20 14:32N 52°58' E 004°47'1 0.8
2015-Mar-20 13:26N 52°58' E 004°46'1 1.3
2015-Mar-20 12:32N 52°58' E 004°44'23 5.8
2015-Mar-20 08:33N 53°19' E 005°02'8 7.8
2015-Mar-20 07:33N 53°19' E 005°15'3 2.4
2015-Mar-20 06:27N 53°22' E 005°13'0 0.0
2015-Mar-20 05:30N 53°22' E 005°13'0 0.0
2015-Mar-20 04:33N 53°22' E 005°13'0 0.0
2015-Mar-20 03:33N 53°22' E 005°13'0 0.0
2015-Mar-20 02:27N 53°22' E 005°13'0 0.0
2015-Mar-20 01:30N 53°22' E 005°13'  

Dump ship's entire track history